createdAt,value
2023-03-13T00:00:04.680Z,987.59
2023-03-13T00:01:04.675Z,987.55
2023-03-13T00:02:04.696Z,987.50
2023-03-13T00:03:04.648Z,987.48
2023-03-13T00:04:04.657Z,987.46
2023-03-13T00:05:04.662Z,987.39
2023-03-13T00:06:04.632Z,987.37
2023-03-13T00:07:04.607Z,987.34
2023-03-13T00:08:04.602Z,987.35
2023-03-13T00:09:04.580Z,987.32
2023-03-13T00:10:04.591Z,987.28
2023-03-13T00:11:04.569Z,987.28
2023-03-13T00:12:04.565Z,987.30
2023-03-13T00:13:04.541Z,987.27
2023-03-13T00:14:04.544Z,987.23
2023-03-13T00:15:04.530Z,987.26
2023-03-13T00:16:04.534Z,987.23
2023-03-13T00:17:04.587Z,987.25
2023-03-13T00:18:04.508Z,987.23
2023-03-13T00:19:04.480Z,987.24
2023-03-13T00:20:04.476Z,987.22
2023-03-13T00:21:04.489Z,987.22
2023-03-13T00:22:04.468Z,987.20
2023-03-13T00:23:04.447Z,987.17
2023-03-13T00:24:04.436Z,987.15
2023-03-13T00:25:04.410Z,987.12
2023-03-13T00:26:04.418Z,987.11
2023-03-13T00:27:04.404Z,987.11
2023-03-13T00:28:04.386Z,987.07
2023-03-13T00:29:04.381Z,987.05
2023-03-13T00:30:04.372Z,987.04
2023-03-13T00:31:04.413Z,987.01
2023-03-13T00:32:04.400Z,986.97
2023-03-13T00:33:04.346Z,986.95
2023-03-13T00:34:04.346Z,986.99
2023-03-13T00:35:04.307Z,987.00
2023-03-13T00:36:04.313Z,987.00
2023-03-13T00:37:04.289Z,986.98
2023-03-13T00:38:04.282Z,986.98
2023-03-13T00:39:04.285Z,986.98
2023-03-13T00:40:04.271Z,986.96
2023-03-13T00:41:04.251Z,986.97
2023-03-13T00:42:04.253Z,986.97
2023-03-13T00:43:04.233Z,986.96
2023-03-13T00:44:04.215Z,986.93
2023-03-13T00:45:04.209Z,986.91
2023-03-13T00:46:04.208Z,986.93
2023-03-13T00:47:04.234Z,986.89
2023-03-13T00:48:04.176Z,986.86
2023-03-13T00:49:04.172Z,986.83
2023-03-13T00:50:04.177Z,986.82
2023-03-13T00:51:04.154Z,986.79
2023-03-13T00:52:04.135Z,986.74
2023-03-13T00:53:04.143Z,986.69
2023-03-13T00:54:04.115Z,986.65
2023-03-13T00:55:04.117Z,986.63
2023-03-13T00:56:04.114Z,986.62
2023-03-13T00:57:04.093Z,986.57
2023-03-13T00:58:04.085Z,986.58
2023-03-13T00:59:04.089Z,986.52
2023-03-13T01:00:04.060Z,986.53
2023-03-13T01:01:04.048Z,986.48
2023-03-13T01:02:04.046Z,986.50
2023-03-13T01:03:04.232Z,986.45
2023-03-13T01:04:04.017Z,986.47
2023-03-13T01:05:04.019Z,986.40
2023-03-13T01:06:03.999Z,986.39
2023-03-13T01:07:03.987Z,986.40
2023-03-13T01:08:04.028Z,986.35
2023-03-13T01:09:04.016Z,986.36
2023-03-13T01:10:03.999Z,986.37
2023-03-13T01:11:03.970Z,986.35
2023-03-13T01:12:03.940Z,986.32
2023-03-13T01:13:03.950Z,986.35
2023-03-13T01:14:03.917Z,986.33
2023-03-13T01:15:03.902Z,986.32
2023-03-13T01:16:03.952Z,986.28
2023-03-13T01:17:03.893Z,986.27
2023-03-13T01:18:03.873Z,986.19
2023-03-13T01:19:03.870Z,986.15
2023-03-13T01:20:03.846Z,986.12
2023-03-13T01:21:03.854Z,986.07
2023-03-13T01:22:03.831Z,986.11
2023-03-13T01:23:03.837Z,986.12
2023-03-13T01:24:03.821Z,986.08
2023-03-13T01:25:03.823Z,986.01
2023-03-13T01:26:04.089Z,986.05
2023-03-13T01:27:03.780Z,986.04
2023-03-13T01:28:03.767Z,985.99
2023-03-13T01:29:03.761Z,985.98
2023-03-13T01:30:03.754Z,985.96
2023-03-13T01:31:03.784Z,985.90
2023-03-13T01:32:03.734Z,985.89
2023-03-13T01:33:03.745Z,985.85
2023-03-13T01:34:03.711Z,985.80
2023-03-13T01:35:03.706Z,985.80
2023-03-13T01:36:03.731Z,985.74
2023-03-13T01:37:03.690Z,985.80
2023-03-13T01:38:03.679Z,985.73
2023-03-13T01:39:03.665Z,985.72
2023-03-13T01:40:03.646Z,985.74
2023-03-13T01:41:03.662Z,985.71
2023-03-13T01:42:03.630Z,985.66
2023-03-13T01:43:05.163Z,985.65
2023-03-13T01:44:03.600Z,985.59
2023-03-13T01:45:03.603Z,985.57
2023-03-13T01:46:03.644Z,985.59
2023-03-13T01:47:03.576Z,985.56
2023-03-13T01:48:03.574Z,985.55
2023-03-13T01:49:03.568Z,985.55
2023-03-13T01:50:03.575Z,985.59
2023-03-13T01:51:03.544Z,985.55
2023-03-13T01:52:03.518Z,985.45
2023-03-13T01:53:03.531Z,985.41
2023-03-13T01:54:03.504Z,985.41
2023-03-13T01:55:03.503Z,985.42
2023-03-13T01:56:03.492Z,985.40
2023-03-13T01:57:03.478Z,985.36
2023-03-13T01:58:03.466Z,985.36
2023-03-13T01:59:03.454Z,985.38
2023-03-13T02:00:03.457Z,985.38
2023-03-13T02:01:03.446Z,985.31
2023-03-13T02:02:03.489Z,985.32
2023-03-13T02:03:03.471Z,985.20
2023-03-13T02:04:03.413Z,985.34
2023-03-13T02:05:03.395Z,985.18
2023-03-13T02:06:03.376Z,985.25
2023-03-13T02:07:03.382Z,985.17
2023-03-13T02:08:03.369Z,985.14
2023-03-13T02:09:03.351Z,985.22
2023-03-13T02:10:03.347Z,985.13
2023-03-13T02:11:03.920Z,985.19
2023-03-13T02:12:03.330Z,985.10
2023-03-13T02:13:03.318Z,985.04
2023-03-13T02:14:03.289Z,985.03
2023-03-13T02:15:03.289Z,984.93
2023-03-13T02:16:03.729Z,984.94
2023-03-13T02:17:03.276Z,984.84
2023-03-13T02:18:03.247Z,984.85
2023-03-13T02:19:03.278Z,984.90
2023-03-13T02:20:03.238Z,984.87
2023-03-13T02:21:03.547Z,984.85
2023-03-13T02:22:03.224Z,984.87
2023-03-13T02:23:03.229Z,984.90
2023-03-13T02:24:03.184Z,984.85
2023-03-13T02:25:03.205Z,984.81
2023-03-13T02:26:03.372Z,984.86
2023-03-13T02:27:03.174Z,984.78
2023-03-13T02:28:03.165Z,984.80
2023-03-13T02:29:03.156Z,984.68
2023-03-13T02:30:03.278Z,984.73
2023-03-13T02:31:03.655Z,984.68
2023-03-13T02:32:03.136Z,984.67
2023-03-13T02:33:03.198Z,984.67
2023-03-13T02:34:03.084Z,984.65
2023-03-13T02:35:03.097Z,984.60
2023-03-13T02:36:03.521Z,984.54
2023-03-13T02:37:03.071Z,984.55
2023-03-13T02:38:03.069Z,984.54
2023-03-13T02:39:03.052Z,984.57
2023-03-13T02:40:03.034Z,984.52
2023-03-13T02:41:03.338Z,984.62
2023-03-13T02:42:03.019Z,984.51
2023-03-13T02:43:03.010Z,984.50
2023-03-13T02:44:03.004Z,984.50
2023-03-13T02:45:02.988Z,984.50
2023-03-13T02:46:03.311Z,984.35
2023-03-13T02:47:02.985Z,984.40
2023-03-13T02:48:02.970Z,984.45
2023-03-13T02:49:02.950Z,984.40
2023-03-13T02:50:02.940Z,984.39
2023-03-13T02:51:03.237Z,984.41
2023-03-13T02:52:02.918Z,984.30
2023-03-13T02:53:02.918Z,984.29
2023-03-13T02:54:02.911Z,984.26
2023-03-13T02:55:02.889Z,984.27
2023-03-13T02:56:03.789Z,984.29
2023-03-13T02:57:02.871Z,984.30
2023-03-13T02:58:02.869Z,984.22
2023-03-13T02:59:02.861Z,984.23
2023-03-13T03:00:02.840Z,984.20
2023-03-13T03:01:02.931Z,984.16
2023-03-13T03:02:02.829Z,984.19
2023-03-13T03:03:02.841Z,984.13
2023-03-13T03:04:02.872Z,984.11
2023-03-13T03:05:02.788Z,984.12
2023-03-13T03:06:02.782Z,984.16
2023-03-13T03:07:02.785Z,984.03
2023-03-13T03:08:02.760Z,984.03
2023-03-13T03:09:02.746Z,983.98
2023-03-13T03:10:02.745Z,983.92
2023-03-13T03:11:02.726Z,983.96
2023-03-13T03:12:02.815Z,983.92
2023-03-13T03:13:02.704Z,983.92
2023-03-13T03:14:02.699Z,983.88
2023-03-13T03:15:02.695Z,983.82
2023-03-13T03:16:02.693Z,983.75
2023-03-13T03:17:02.710Z,983.66
2023-03-13T03:18:02.649Z,983.68
2023-03-13T03:19:02.661Z,983.63
2023-03-13T03:20:02.688Z,983.52
2023-03-13T03:21:02.634Z,983.52
2023-03-13T03:22:02.616Z,983.43
2023-03-13T03:23:02.616Z,983.42
2023-03-13T03:24:02.609Z,983.46
2023-03-13T03:25:02.590Z,983.39
2023-03-13T03:26:02.585Z,983.37
2023-03-13T03:27:02.579Z,983.35
2023-03-13T03:28:02.548Z,983.38
2023-03-13T03:29:02.541Z,983.42
2023-03-13T03:30:02.535Z,983.47
2023-03-13T03:31:02.526Z,983.46
2023-03-13T03:32:02.669Z,983.40
2023-03-13T03:33:02.582Z,983.39
2023-03-13T03:34:02.480Z,983.33
2023-03-13T03:35:02.488Z,983.34
2023-03-13T03:36:02.500Z,983.27
2023-03-13T03:37:02.940Z,983.20
2023-03-13T03:38:02.446Z,983.15
2023-03-13T03:39:02.454Z,983.14
2023-03-13T03:40:02.420Z,983.14
2023-03-13T03:41:02.428Z,983.12
2023-03-13T03:42:02.491Z,983.08
2023-03-13T03:43:02.406Z,983.04
2023-03-13T03:44:02.400Z,983.07
2023-03-13T03:45:02.387Z,983.05
2023-03-13T03:46:02.413Z,983.10
2023-03-13T03:47:02.425Z,983.04
2023-03-13T03:48:02.357Z,983.05
2023-03-13T03:49:02.345Z,982.96
2023-03-13T03:50:02.326Z,982.91
2023-03-13T03:51:02.310Z,982.90
2023-03-13T03:52:02.308Z,982.84
2023-03-13T03:53:02.293Z,982.84
2023-03-13T03:54:02.291Z,982.80
2023-03-13T03:55:02.275Z,982.81
2023-03-13T03:56:02.271Z,982.83
2023-03-13T03:57:02.259Z,982.77
2023-03-13T03:58:02.241Z,982.78
2023-03-13T03:59:02.240Z,982.76
2023-03-13T04:00:02.249Z,982.79
2023-03-13T04:01:02.233Z,982.83
2023-03-13T04:02:02.274Z,982.72
2023-03-13T04:03:02.213Z,982.73
2023-03-13T04:04:02.188Z,982.71
2023-03-13T04:05:02.192Z,982.65
2023-03-13T04:06:02.184Z,982.68
2023-03-13T04:07:02.174Z,982.81
2023-03-13T04:08:02.156Z,982.64
2023-03-13T04:09:02.144Z,982.66
2023-03-13T04:10:02.119Z,982.62
2023-03-13T04:11:02.114Z,982.72
2023-03-13T04:12:02.126Z,982.62
2023-03-13T04:13:02.109Z,982.55
2023-03-13T04:14:02.088Z,982.38
2023-03-13T04:15:02.073Z,982.45
2023-03-13T04:16:02.071Z,982.40
2023-03-13T04:17:02.166Z,982.53
2023-03-13T04:18:02.050Z,982.28
2023-03-13T04:19:02.056Z,982.38
2023-03-13T04:20:02.028Z,982.40
2023-03-13T04:21:02.013Z,982.33
2023-03-13T04:22:02.012Z,982.42
2023-03-13T04:23:01.992Z,982.46
2023-03-13T04:24:02.008Z,982.45
2023-03-13T04:25:02.001Z,982.41
2023-03-13T04:26:01.961Z,982.44
2023-03-13T04:27:01.956Z,982.36
2023-03-13T04:28:01.952Z,982.47
2023-03-13T04:29:01.951Z,982.43
2023-03-13T04:30:01.917Z,982.43
2023-03-13T04:31:02.013Z,982.35
2023-03-13T04:32:01.974Z,982.43
2023-03-13T04:33:02.012Z,982.30
2023-03-13T04:34:01.887Z,982.24
2023-03-13T04:35:01.933Z,982.34
2023-03-13T04:36:01.901Z,982.43
2023-03-13T04:37:01.873Z,982.49
2023-03-13T04:38:01.843Z,982.38
2023-03-13T04:39:01.833Z,982.49
2023-03-13T04:40:01.884Z,982.54
2023-03-13T04:41:01.821Z,982.56
2023-03-13T04:42:01.816Z,982.53
2023-03-13T04:43:01.804Z,982.56
2023-03-13T04:44:01.790Z,982.55
2023-03-13T04:45:01.792Z,982.60
2023-03-13T04:46:01.806Z,982.52
2023-03-13T04:47:01.778Z,982.59
2023-03-13T04:48:01.743Z,982.50
2023-03-13T04:49:01.735Z,982.57
2023-03-13T04:50:01.733Z,982.34
2023-03-13T04:51:01.713Z,982.50
2023-03-13T04:52:01.709Z,982.36
2023-03-13T04:53:01.698Z,982.33
2023-03-13T04:54:01.683Z,982.22
2023-03-13T04:55:01.698Z,982.16
2023-03-13T04:56:01.683Z,982.07
2023-03-13T04:57:01.928Z,982.22
2023-03-13T04:58:02.636Z,981.93
2023-03-13T04:59:02.226Z,981.94
2023-03-13T05:00:01.632Z,981.81
2023-03-13T05:01:01.671Z,981.78
2023-03-13T05:02:02.038Z,981.91
2023-03-13T05:03:01.590Z,981.91
2023-03-13T05:04:01.602Z,981.82
2023-03-13T05:05:01.655Z,981.85
2023-03-13T05:06:01.569Z,981.95
2023-03-13T05:07:01.938Z,981.98
2023-03-13T05:08:01.543Z,982.02
2023-03-13T05:09:01.533Z,982.02
2023-03-13T05:10:01.528Z,982.00
2023-03-13T05:11:01.515Z,982.03
2023-03-13T05:12:01.529Z,981.97
2023-03-13T05:13:01.494Z,981.89
2023-03-13T05:14:01.527Z,981.84
2023-03-13T05:15:01.474Z,981.91
2023-03-13T05:16:01.476Z,981.87
2023-03-13T05:17:01.721Z,981.93
2023-03-13T05:18:01.391Z,981.97
2023-03-13T05:19:01.369Z,982.07
2023-03-13T05:20:01.381Z,982.08
2023-03-13T05:21:01.374Z,982.09
2023-03-13T05:22:01.353Z,982.02
2023-03-13T05:23:01.358Z,982.16
2023-03-13T05:24:01.351Z,982.06
2023-03-13T05:25:01.310Z,982.09
2023-03-13T05:26:01.318Z,981.96
2023-03-13T05:27:01.289Z,981.98
2023-03-13T05:28:01.302Z,982.01
2023-03-13T05:29:01.295Z,981.99
2023-03-13T05:30:01.340Z,982.02
2023-03-13T05:31:01.339Z,982.08
2023-03-13T05:32:01.246Z,982.07
2023-03-13T05:33:01.797Z,982.10
2023-03-13T05:34:01.258Z,982.03
2023-03-13T05:35:01.216Z,982.03
2023-03-13T05:36:01.237Z,982.13
2023-03-13T05:37:01.191Z,982.10
2023-03-13T05:38:01.192Z,981.92
2023-03-13T05:39:01.208Z,982.04
2023-03-13T05:40:01.174Z,981.97
2023-03-13T05:41:01.155Z,981.95
2023-03-13T05:42:01.154Z,981.91
2023-03-13T05:43:01.144Z,981.96
2023-03-13T05:44:01.144Z,981.84
2023-03-13T05:45:01.129Z,981.88
2023-03-13T05:46:01.259Z,981.88
2023-03-13T05:47:02.977Z,981.86
2023-03-13T05:48:01.094Z,981.95
2023-03-13T05:49:01.092Z,981.89
2023-03-13T05:50:01.062Z,981.94
2023-03-13T05:51:01.042Z,981.92
2023-03-13T05:52:01.055Z,981.93
2023-03-13T05:53:01.037Z,981.85
2023-03-13T05:54:01.029Z,981.85
2023-03-13T05:55:01.012Z,981.86
2023-03-13T05:56:00.998Z,981.95
2023-03-13T05:57:00.995Z,981.80
2023-03-13T05:58:00.993Z,981.90
2023-03-13T05:59:00.968Z,981.85
2023-03-13T06:00:00.971Z,981.83
2023-03-13T06:01:00.961Z,981.68
2023-03-13T06:02:00.941Z,981.58
2023-03-13T06:03:00.928Z,981.65
2023-03-13T06:04:01.062Z,981.57
2023-03-13T06:05:00.975Z,981.61
2023-03-13T06:06:00.895Z,981.50
2023-03-13T06:07:00.901Z,981.40
2023-03-13T06:08:00.881Z,981.42
2023-03-13T06:09:00.898Z,981.45
2023-03-13T06:10:00.866Z,981.47
2023-03-13T06:11:00.856Z,981.52
2023-03-13T06:12:00.847Z,981.48
2023-03-13T06:13:13.742Z,981.45
2023-03-13T06:14:00.834Z,981.53
2023-03-13T06:15:00.816Z,981.55
2023-03-13T06:16:00.847Z,981.55
2023-03-13T06:17:00.795Z,981.56
2023-03-13T06:18:00.824Z,981.58
2023-03-13T06:19:00.767Z,981.52
2023-03-13T06:20:00.778Z,981.50
2023-03-13T06:21:00.748Z,981.55
2023-03-13T06:22:00.739Z,981.49
2023-03-13T06:23:00.724Z,981.48
2023-03-13T06:24:00.725Z,981.58
2023-03-13T06:25:00.730Z,981.60
2023-03-13T06:26:00.704Z,981.61
2023-03-13T06:27:00.687Z,981.58
2023-03-13T06:28:00.686Z,981.58
2023-03-13T06:29:00.685Z,981.50
2023-03-13T06:30:00.657Z,981.52
2023-03-13T06:31:00.691Z,981.55
2023-03-13T06:32:00.704Z,981.57
2023-03-13T06:33:00.787Z,981.44
2023-03-13T06:34:00.613Z,981.53
2023-03-13T06:35:00.615Z,981.55
2023-03-13T06:36:00.663Z,981.66
2023-03-13T06:37:00.595Z,981.63
2023-03-13T06:38:00.609Z,981.66
2023-03-13T06:39:00.567Z,981.65
2023-03-13T06:40:00.561Z,981.62
2023-03-13T06:41:00.551Z,981.66
2023-03-13T06:42:00.538Z,981.66
2023-03-13T06:43:00.536Z,981.67
2023-03-13T06:44:00.518Z,981.71
2023-03-13T06:45:00.519Z,981.67
2023-03-13T06:46:00.496Z,981.64
2023-03-13T06:47:00.499Z,981.62
2023-03-13T06:48:00.484Z,981.62
2023-03-13T06:49:00.465Z,981.61
2023-03-13T06:50:00.477Z,981.56
2023-03-13T06:51:00.446Z,981.56
2023-03-13T06:52:00.440Z,981.63
2023-03-13T06:53:00.431Z,981.69
2023-03-13T06:54:00.436Z,981.67
2023-03-13T06:55:00.400Z,981.66
2023-03-13T06:56:00.396Z,981.51
2023-03-13T06:57:00.390Z,981.46
2023-03-13T06:58:00.378Z,981.39
2023-03-13T06:59:00.399Z,981.40
2023-03-13T07:00:00.365Z,981.44
2023-03-13T07:01:00.386Z,981.38
2023-03-13T07:02:00.328Z,981.48
2023-03-13T07:03:00.347Z,981.44
2023-03-13T07:04:00.390Z,981.36
2023-03-13T07:05:00.314Z,981.29
2023-03-13T07:06:00.326Z,981.33
2023-03-13T07:07:00.288Z,981.30
2023-03-13T07:08:00.298Z,981.38
2023-03-13T07:09:00.278Z,981.42
2023-03-13T07:10:00.272Z,981.37
2023-03-13T07:11:00.268Z,981.40
2023-03-13T07:12:00.254Z,981.40
2023-03-13T07:13:00.242Z,981.40
2023-03-13T07:14:13.630Z,981.36
2023-03-13T07:15:00.222Z,981.37
2023-03-13T07:16:00.277Z,981.38
2023-03-13T07:17:00.225Z,981.35
2023-03-13T07:18:00.186Z,981.28
2023-03-13T07:19:00.167Z,981.25
2023-03-13T07:20:00.300Z,981.30
2023-03-13T07:21:00.177Z,981.28
2023-03-13T07:22:00.161Z,981.45
2023-03-13T07:23:00.118Z,981.48
2023-03-13T07:24:00.119Z,981.51
2023-03-13T07:25:00.130Z,981.48
2023-03-13T07:26:00.106Z,981.54
2023-03-13T07:27:07.123Z,981.53
2023-03-13T07:28:00.349Z,981.54
2023-03-13T07:29:00.096Z,981.55
2023-03-13T07:30:00.049Z,981.66
2023-03-13T07:31:00.035Z,981.54
2023-03-13T07:32:00.087Z,981.52
2023-03-13T07:33:00.293Z,981.62
2023-03-13T07:34:00.010Z,981.62
2023-03-13T07:34:59.996Z,981.67
2023-03-13T07:35:59.992Z,981.64
2023-03-13T07:36:59.973Z,981.64
2023-03-13T07:37:59.978Z,981.62
2023-03-13T07:38:59.953Z,981.57
2023-03-13T07:39:59.944Z,981.56
2023-03-13T07:40:59.930Z,981.57
2023-03-13T07:41:59.943Z,981.61
2023-03-13T07:42:59.930Z,981.56
2023-03-13T07:43:59.900Z,981.56
2023-03-13T07:44:59.889Z,981.54
2023-03-13T07:46:00.009Z,981.56
2023-03-13T07:47:00.585Z,981.46
2023-03-13T07:48:00.228Z,981.36
2023-03-13T07:48:59.841Z,981.43
2023-03-13T07:49:59.859Z,981.37
2023-03-13T07:50:59.821Z,981.40
2023-03-13T07:51:59.816Z,981.36
2023-03-13T07:52:59.888Z,981.30
2023-03-13T07:53:59.803Z,981.35
2023-03-13T07:54:59.792Z,981.40
2023-03-13T07:55:59.790Z,981.33
2023-03-13T07:56:59.755Z,981.36
2023-03-13T07:57:59.749Z,981.36
2023-03-13T07:58:59.751Z,981.31
2023-03-13T07:59:59.735Z,981.31
2023-03-13T08:00:59.710Z,981.35
2023-03-13T08:01:59.763Z,981.37
2023-03-13T08:02:59.739Z,981.31
2023-03-13T08:03:59.712Z,981.31
2023-03-13T08:04:59.667Z,981.32
2023-03-13T08:05:59.659Z,981.32
2023-03-13T08:06:59.648Z,981.31
2023-03-13T08:07:59.638Z,981.25
2023-03-13T08:08:59.651Z,981.31
2023-03-13T08:09:59.630Z,981.26
2023-03-13T08:10:59.635Z,981.27
2023-03-13T08:11:59.615Z,981.30
2023-03-13T08:12:59.585Z,981.34
2023-03-13T08:13:59.606Z,981.34
2023-03-13T08:14:59.578Z,981.36
2023-03-13T08:15:59.563Z,981.32
2023-03-13T08:16:59.594Z,981.32
2023-03-13T08:17:59.539Z,981.30
2023-03-13T08:18:59.551Z,981.34
2023-03-13T08:19:59.523Z,981.30
2023-03-13T08:20:59.503Z,981.33
2023-03-13T08:21:59.502Z,981.45
2023-03-13T08:22:59.484Z,981.34
2023-03-13T08:23:59.530Z,981.39
2023-03-13T08:24:59.454Z,981.45
2023-03-13T08:25:59.447Z,981.54
2023-03-13T08:26:59.439Z,981.49
2023-03-13T08:28:01.500Z,981.54
2023-03-13T08:28:59.414Z,981.55
2023-03-13T08:29:59.418Z,981.56
2023-03-13T08:30:59.512Z,981.63
2023-03-13T08:31:59.392Z,981.65
2023-03-13T08:32:59.508Z,981.63
2023-03-13T08:33:59.375Z,981.68
2023-03-13T08:34:59.368Z,981.63
2023-03-13T08:35:59.381Z,981.58
2023-03-13T08:36:59.334Z,981.64
2023-03-13T08:37:59.317Z,981.64
2023-03-13T08:38:59.313Z,981.64
2023-03-13T08:39:59.293Z,981.64
2023-03-13T08:40:59.285Z,981.62
2023-03-13T08:41:59.287Z,981.60
2023-03-13T08:42:59.322Z,981.55
2023-03-13T08:43:59.270Z,981.56
2023-03-13T08:44:59.251Z,981.53
2023-03-13T08:45:59.286Z,981.58
2023-03-13T08:46:59.234Z,981.61
2023-03-13T08:47:59.230Z,981.57
2023-03-13T08:48:59.214Z,981.60
2023-03-13T08:49:59.209Z,981.62
2023-03-13T08:50:59.181Z,981.64
2023-03-13T08:51:59.227Z,981.66
2023-03-13T08:52:59.174Z,981.56
2023-03-13T08:53:59.195Z,981.58
2023-03-13T08:54:59.150Z,981.54
2023-03-13T08:55:59.156Z,981.62
2023-03-13T08:56:59.123Z,981.58
2023-03-13T08:57:59.159Z,981.58
2023-03-13T08:58:59.114Z,981.57
2023-03-13T08:59:59.091Z,981.54
2023-03-13T09:00:59.082Z,981.59
2023-03-13T09:01:59.099Z,981.57
2023-03-13T09:02:59.181Z,981.59
2023-03-13T09:04:01.975Z,981.57
2023-03-13T09:04:59.051Z,981.55
2023-03-13T09:05:59.042Z,981.55
2023-03-13T09:06:59.031Z,981.49
2023-03-13T09:07:59.014Z,981.47
2023-03-13T09:08:59.043Z,981.41
2023-03-13T09:09:59.003Z,981.32
2023-03-13T09:10:59.011Z,981.29
2023-03-13T09:11:58.968Z,981.28
2023-03-13T09:12:58.975Z,981.27
2023-03-13T09:13:58.964Z,981.22
2023-03-13T09:14:58.961Z,981.14
2023-03-13T09:15:59.051Z,981.11
2023-03-13T09:16:58.936Z,981.10
2023-03-13T09:17:58.926Z,981.12
2023-03-13T09:18:58.941Z,981.08
2023-03-13T09:20:00.933Z,981.00
2023-03-13T09:20:58.887Z,980.98
2023-03-13T09:21:58.861Z,980.97
2023-03-13T09:22:58.872Z,980.96
2023-03-13T09:23:58.859Z,980.90
2023-03-13T09:24:58.848Z,980.89
2023-03-13T09:25:58.829Z,980.84
2023-03-13T09:27:01.260Z,980.89
2023-03-13T09:27:58.806Z,980.86
2023-03-13T09:28:58.807Z,980.85
2023-03-13T09:29:58.772Z,980.88
2023-03-13T09:30:58.813Z,980.88
2023-03-13T09:31:58.784Z,980.80
2023-03-13T09:32:58.825Z,980.78
2023-03-13T09:33:58.759Z,980.74
2023-03-13T09:34:58.738Z,980.71
2023-03-13T09:35:58.795Z,980.71
2023-03-13T09:36:58.728Z,980.73
2023-03-13T09:37:58.715Z,980.69
2023-03-13T09:38:58.710Z,980.66
2023-03-13T09:39:58.681Z,980.63
2023-03-13T09:41:05.935Z,980.59
2023-03-13T09:41:58.656Z,980.51
2023-03-13T09:42:58.647Z,980.52
2023-03-13T09:43:58.653Z,980.43
2023-03-13T09:44:58.626Z,980.47
2023-03-13T09:45:58.624Z,980.52
2023-03-13T09:46:58.611Z,980.51
2023-03-13T09:47:58.597Z,980.56
2023-03-13T09:48:58.587Z,980.57
2023-03-13T09:49:58.571Z,980.57
2023-03-13T09:50:58.578Z,980.56
2023-03-13T09:51:58.551Z,980.56
2023-03-13T09:52:58.601Z,980.49
2023-03-13T09:53:58.535Z,980.54
2023-03-13T09:54:58.568Z,980.58
2023-03-13T09:55:58.507Z,980.53
2023-03-13T09:56:58.502Z,980.61
2023-03-13T09:57:58.500Z,980.56
2023-03-13T09:58:58.487Z,980.55
2023-03-13T09:59:58.461Z,980.53
2023-03-13T10:00:58.451Z,980.51
2023-03-13T10:01:58.547Z,980.53
2023-03-13T10:02:58.434Z,980.61
2023-03-13T10:03:58.426Z,980.58
2023-03-13T10:04:58.420Z,980.53
2023-03-13T10:05:58.408Z,980.49
2023-03-13T10:06:58.388Z,980.52
2023-03-13T10:07:58.376Z,980.58
2023-03-13T10:08:58.373Z,980.53
2023-03-13T10:09:58.356Z,980.53
2023-03-13T10:10:58.345Z,980.50
2023-03-13T10:11:58.350Z,980.52
2023-03-13T10:12:58.330Z,980.48
2023-03-13T10:13:58.316Z,980.54
2023-03-13T10:14:58.328Z,980.56
2023-03-13T10:15:58.351Z,980.52
2023-03-13T10:16:58.294Z,980.57
2023-03-13T10:17:58.278Z,980.63
2023-03-13T10:18:58.268Z,980.61
2023-03-13T10:19:58.262Z,980.57
2023-03-13T10:20:58.235Z,980.50
2023-03-13T10:21:58.224Z,980.47
2023-03-13T10:22:58.230Z,980.46
2023-03-13T10:23:58.629Z,980.41
2023-03-13T10:24:58.205Z,980.40
2023-03-13T10:25:58.184Z,980.38
2023-03-13T10:26:58.189Z,980.31
2023-03-13T10:27:58.158Z,980.24
2023-03-13T10:28:58.477Z,980.31
2023-03-13T10:29:58.144Z,980.37
2023-03-13T10:30:58.170Z,980.40
2023-03-13T10:31:58.143Z,980.39
2023-03-13T10:32:58.182Z,980.35
2023-03-13T10:33:58.424Z,980.40
2023-03-13T10:34:58.107Z,980.30
2023-03-13T10:35:58.165Z,980.39
2023-03-13T10:36:58.071Z,980.38
2023-03-13T10:37:58.064Z,980.37
2023-03-13T10:38:58.421Z,980.33
2023-03-13T10:39:58.035Z,980.34
2023-03-13T10:40:58.046Z,980.36
2023-03-13T10:41:58.018Z,980.30
2023-03-13T10:42:58.023Z,980.29
2023-03-13T10:43:58.300Z,980.30
2023-03-13T10:44:57.998Z,980.31
2023-03-13T10:45:57.974Z,980.36
2023-03-13T10:46:58.054Z,980.34
2023-03-13T10:47:57.953Z,980.34
2023-03-13T10:48:57.974Z,980.38
2023-03-13T10:49:57.940Z,980.36
2023-03-13T10:50:57.950Z,980.38
2023-03-13T10:51:57.911Z,980.40
2023-03-13T10:52:57.904Z,980.42
2023-03-13T10:53:57.917Z,980.41
2023-03-13T10:54:57.889Z,980.41
2023-03-13T10:55:57.900Z,980.32
2023-03-13T10:56:57.873Z,980.33
2023-03-13T10:57:57.859Z,980.36
2023-03-13T10:58:57.864Z,980.42
2023-03-13T10:59:57.830Z,980.35
2023-03-13T11:00:57.831Z,980.40
2023-03-13T11:01:57.814Z,980.30
2023-03-13T11:02:57.949Z,980.21
2023-03-13T11:03:57.888Z,980.36
2023-03-13T11:04:57.789Z,980.37
2023-03-13T11:05:57.786Z,980.34
2023-03-13T11:06:57.835Z,980.34
2023-03-13T11:07:57.750Z,980.31
2023-03-13T11:08:58.484Z,980.29
2023-03-13T11:09:57.722Z,980.28
2023-03-13T11:10:57.733Z,980.38
2023-03-13T11:11:57.704Z,980.34
2023-03-13T11:12:57.701Z,980.24
2023-03-13T11:13:58.044Z,980.27
2023-03-13T11:14:57.745Z,980.29
2023-03-13T11:15:57.706Z,980.24
2023-03-13T11:16:57.680Z,980.26
2023-03-13T11:17:57.639Z,980.26
2023-03-13T11:18:57.637Z,980.24
2023-03-13T11:19:57.616Z,980.28
2023-03-13T11:21:00.965Z,980.29
2023-03-13T11:21:57.622Z,980.23
2023-03-13T11:22:57.591Z,980.20
2023-03-13T11:23:57.576Z,980.21
2023-03-13T11:24:57.590Z,980.17
2023-03-13T11:25:57.566Z,980.19
2023-03-13T11:27:04.603Z,980.14
2023-03-13T11:27:57.543Z,980.10
2023-03-13T11:28:57.532Z,980.16
2023-03-13T11:29:57.650Z,980.12
2023-03-13T11:30:57.506Z,980.09
2023-03-13T11:31:57.581Z,980.02
2023-03-13T11:32:57.607Z,979.92
2023-03-13T11:33:57.537Z,979.94
2023-03-13T11:34:57.474Z,979.92
2023-03-13T11:35:57.478Z,979.96
2023-03-13T11:36:57.450Z,979.92
2023-03-13T11:37:57.434Z,979.85
2023-03-13T11:38:57.441Z,979.83
2023-03-13T11:39:57.414Z,979.77
2023-03-13T11:40:57.414Z,979.78
2023-03-13T11:41:57.455Z,979.81
2023-03-13T11:42:57.380Z,979.98
2023-03-13T11:43:57.370Z,979.81
2023-03-13T11:44:57.372Z,979.75
2023-03-13T11:45:57.487Z,979.75
2023-03-13T11:46:57.435Z,979.71
2023-03-13T11:47:57.321Z,979.86
2023-03-13T11:48:57.313Z,979.78
2023-03-13T11:49:57.311Z,979.80
2023-03-13T11:50:57.291Z,979.75
2023-03-13T11:51:57.309Z,979.84
2023-03-13T11:52:57.334Z,979.82
2023-03-13T11:53:57.271Z,979.76
2023-03-13T11:54:57.259Z,979.83
2023-03-13T11:55:57.242Z,979.90
2023-03-13T11:56:57.242Z,979.70
2023-03-13T11:57:57.230Z,979.78
2023-03-13T11:58:57.230Z,979.81
2023-03-13T11:59:57.210Z,979.65
2023-03-13T12:00:57.238Z,979.77
2023-03-13T12:01:57.233Z,979.65
2023-03-13T12:02:57.180Z,979.64
2023-03-13T12:03:57.225Z,979.57
2023-03-13T12:04:57.216Z,979.59
2023-03-13T12:05:57.145Z,979.59
2023-03-13T12:06:57.131Z,979.59
2023-03-13T12:07:57.136Z,979.62
2023-03-13T12:08:57.121Z,979.60
2023-03-13T12:09:57.105Z,979.46
2023-03-13T12:10:57.088Z,979.48
2023-03-13T12:11:57.072Z,979.44
2023-03-13T12:12:57.080Z,979.48
2023-03-13T12:13:57.065Z,979.42
2023-03-13T12:14:57.060Z,979.42
2023-03-13T12:15:57.041Z,979.45
2023-03-13T12:16:57.060Z,979.46
2023-03-13T12:17:57.051Z,979.32
2023-03-13T12:18:57.019Z,979.37
2023-03-13T12:19:57.007Z,979.37
2023-03-13T12:20:56.996Z,979.40
2023-03-13T12:21:57.037Z,979.51
2023-03-13T12:22:56.970Z,979.37
2023-03-13T12:23:57.071Z,979.39
2023-03-13T12:24:57.047Z,979.39
2023-03-13T12:25:56.931Z,979.29
2023-03-13T12:26:56.931Z,979.26
2023-03-13T12:27:56.986Z,979.22